sensor_id;sensor_type;location;lat;lon;timestamp;P1;durP1;ratioP1;P2;durP2;ratioP2
76656;SDS011;65576;47.714;9.414;2023-07-24T00:00:15;4.88;;;2.97;;
76656;SDS011;65576;47.714;9.414;2023-07-24T00:02:41;7.05;;;3.65;;
76656;SDS011;65576;47.714;9.414;2023-07-24T00:05:06;8.70;;;3.55;;
76656;SDS011;65576;47.714;9.414;2023-07-24T00:07:32;8.07;;;3.70;;
76656;SDS011;65576;47.714;9.414;2023-07-24T00:09:57;8.68;;;4.32;;
76656;SDS011;65576;47.714;9.414;2023-07-24T00:12:22;6.40;;;3.55;;
76656;SDS011;65576;47.714;9.414;2023-07-24T00:14:48;8.35;;;3.83;;
76656;SDS011;65576;47.714;9.414;2023-07-24T00:17:13;6.43;;;3.05;;
76656;SDS011;65576;47.714;9.414;2023-07-24T00:19:38;7.43;;;4.13;;
76656;SDS011;65576;47.714;9.414;2023-07-24T00:22:04;8.60;;;4.15;;
76656;SDS011;65576;47.714;9.414;2023-07-24T00:24:30;8.73;;;3.05;;
76656;SDS011;65576;47.714;9.414;2023-07-24T00:26:56;7.38;;;3.90;;
76656;SDS011;65576;47.714;9.414;2023-07-24T00:29:21;8.90;;;3.85;;
76656;SDS011;65576;47.714;9.414;2023-07-24T00:31:47;8.43;;;4.00;;
76656;SDS011;65576;47.714;9.414;2023-07-24T00:34:12;8.32;;;3.88;;
76656;SDS011;65576;47.714;9.414;2023-07-24T00:36:37;8.52;;;4.38;;
76656;SDS011;65576;47.714;9.414;2023-07-24T00:39:03;7.88;;;4.15;;
76656;SDS011;65576;47.714;9.414;2023-07-24T00:41:28;11.55;;;4.45;;
76656;SDS011;65576;47.714;9.414;2023-07-24T00:43:54;6.95;;;3.55;;
76656;SDS011;65576;47.714;9.414;2023-07-24T00:46:19;9.63;;;4.38;;
76656;SDS011;65576;47.714;9.414;2023-07-24T00:48:44;9.95;;;4.05;;
76656;SDS011;65576;47.714;9.414;2023-07-24T00:51:10;8.65;;;4.38;;
76656;SDS011;65576;47.714;9.414;2023-07-24T00:53:35;7.25;;;3.47;;
76656;SDS011;65576;47.714;9.414;2023-07-24T00:56:00;11.95;;;4.75;;
76656;SDS011;65576;47.714;9.414;2023-07-24T00:58:26;11.70;;;4.30;;
76656;SDS011;65576;47.714;9.414;2023-07-24T01:00:51;12.02;;;5.00;;
76656;SDS011;65576;47.714;9.414;2023-07-24T01:03:17;7.30;;;4.13;;
76656;SDS011;65576;47.714;9.414;2023-07-24T01:05:42;7.70;;;3.70;;
76656;SDS011;65576;47.714;9.414;2023-07-24T01:08:07;9.27;;;4.72;;
76656;SDS011;65576;47.714;9.414;2023-07-24T01:10:33;7.53;;;3.67;;
76656;SDS011;65576;47.714;9.414;2023-07-24T01:13:00;6.63;;;3.85;;
76656;SDS011;65576;47.714;9.414;2023-07-24T01:18:12;8.15;;;3.53;;
76656;SDS011;65576;47.714;9.414;2023-07-24T01:20:57;8.63;;;3.80;;
76656;SDS011;65576;47.714;9.414;2023-07-24T01:26:01;9.45;;;3.90;;
76656;SDS011;65576;47.714;9.414;2023-07-24T01:28:29;8.40;;;3.75;;
76656;SDS011;65576;47.714;9.414;2023-07-24T01:30:55;12.90;;;4.25;;
76656;SDS011;65576;47.714;9.414;2023-07-24T01:33:20;10.23;;;4.85;;
76656;SDS011;65576;47.714;9.414;2023-07-24T01:35:48;7.93;;;4.07;;
76656;SDS011;65576;47.714;9.414;2023-07-24T01:38:21;9.90;;;4.22;;
76656;SDS011;65576;47.714;9.414;2023-07-24T01:40:46;8.20;;;4.47;;
76656;SDS011;65576;47.714;9.414;2023-07-24T01:43:12;8.00;;;3.90;;
76656;SDS011;65576;47.714;9.414;2023-07-24T01:45:38;9.25;;;3.90;;
76656;SDS011;65576;47.714;9.414;2023-07-24T01:48:03;8.98;;;3.95;;
76656;SDS011;65576;47.714;9.414;2023-07-24T01:50:29;12.30;;;4.47;;
76656;SDS011;65576;47.714;9.414;2023-07-24T01:52:55;16.63;;;4.05;;
76656;SDS011;65576;47.714;9.414;2023-07-24T01:55:20;6.13;;;3.33;;
76656;SDS011;65576;47.714;9.414;2023-07-24T01:57:45;8.70;;;4.30;;
76656;SDS011;65576;47.714;9.414;2023-07-24T02:00:11;11.98;;;4.68;;
76656;SDS011;65576;47.714;9.414;2023-07-24T02:02:36;10.57;;;4.78;;
76656;SDS011;65576;47.714;9.414;2023-07-24T02:05:02;7.82;;;4.07;;
76656;SDS011;65576;47.714;9.414;2023-07-24T02:07:27;9.27;;;4.80;;
76656;SDS011;65576;47.714;9.414;2023-07-24T02:09:52;10.23;;;5.15;;
76656;SDS011;65576;47.714;9.414;2023-07-24T02:12:18;12.65;;;4.32;;
76656;SDS011;65576;47.714;9.414;2023-07-24T02:14:43;7.82;;;4.45;;
76656;SDS011;65576;47.714;9.414;2023-07-24T02:17:08;9.30;;;4.30;;
76656;SDS011;65576;47.714;9.414;2023-07-24T02:19:33;8.52;;;4.40;;
76656;SDS011;65576;47.714;9.414;2023-07-24T02:21:59;11.02;;;4.88;;
76656;SDS011;65576;47.714;9.414;2023-07-24T02:24:24;9.80;;;4.43;;
76656;SDS011;65576;47.714;9.414;2023-07-24T02:26:49;8.85;;;4.63;;
76656;SDS011;65576;47.714;9.414;2023-07-24T02:29:15;10.35;;;5.43;;
76656;SDS011;65576;47.714;9.414;2023-07-24T02:31:40;12.57;;;4.55;;
76656;SDS011;65576;47.714;9.414;2023-07-24T02:34:05;11.82;;;4.60;;
76656;SDS011;65576;47.714;9.414;2023-07-24T02:36:31;9.70;;;4.35;;
76656;SDS011;65576;47.714;9.414;2023-07-24T02:38:56;10.57;;;5.07;;
76656;SDS011;65576;47.714;9.414;2023-07-24T02:41:21;13.18;;;4.75;;
76656;SDS011;65576;47.714;9.414;2023-07-24T02:43:47;9.82;;;5.07;;
76656;SDS011;65576;47.714;9.414;2023-07-24T02:46:12;8.82;;;4.93;;
76656;SDS011;65576;47.714;9.414;2023-07-24T02:48:37;15.23;;;5.47;;
76656;SDS011;65576;47.714;9.414;2023-07-24T02:51:03;9.48;;;4.20;;
76656;SDS011;65576;47.714;9.414;2023-07-24T02:53:28;19.48;;;4.75;;
76656;SDS011;65576;47.714;9.414;2023-07-24T02:55:53;9.50;;;4.60;;
76656;SDS011;65576;47.714;9.414;2023-07-24T02:58:19;8.45;;;4.38;;
76656;SDS011;65576;47.714;9.414;2023-07-24T03:00:44;11.75;;;5.03;;
76656;SDS011;65576;47.714;9.414;2023-07-24T03:03:09;7.63;;;4.57;;
76656;SDS011;65576;47.714;9.414;2023-07-24T03:05:35;7.82;;;4.03;;
76656;SDS011;65576;47.714;9.414;2023-07-24T03:08:00;8.02;;;4.50;;
76656;SDS011;65576;47.714;9.414;2023-07-24T03:10:25;12.40;;;5.53;;
76656;SDS011;65576;47.714;9.414;2023-07-24T03:12:51;8.52;;;4.25;;
76656;SDS011;65576;47.714;9.414;2023-07-24T03:15:16;11.52;;;5.25;;
76656;SDS011;65576;47.714;9.414;2023-07-24T03:17:41;10.85;;;5.25;;
76656;SDS011;65576;47.714;9.414;2023-07-24T03:20:17;9.43;;;4.97;;
76656;SDS011;65576;47.714;9.414;2023-07-24T03:22:43;12.77;;;4.97;;
76656;SDS011;65576;47.714;9.414;2023-07-24T03:25:09;9.77;;;5.03;;
76656;SDS011;65576;47.714;9.414;2023-07-24T03:27:34;9.13;;;4.28;;
76656;SDS011;65576;47.714;9.414;2023-07-24T03:30:00;11.98;;;4.82;;
76656;SDS011;65576;47.714;9.414;2023-07-24T03:32:25;7.22;;;4.65;;
76656;SDS011;65576;47.714;9.414;2023-07-24T03:34:50;8.68;;;4.72;;
76656;SDS011;65576;47.714;9.414;2023-07-24T03:37:16;6.32;;;3.90;;
76656;SDS011;65576;47.714;9.414;2023-07-24T03:39:41;8.65;;;4.15;;
76656;SDS011;65576;47.714;9.414;2023-07-24T03:42:09;12.15;;;4.80;;
76656;SDS011;65576;47.714;9.414;2023-07-24T03:44:34;8.70;;;4.63;;
76656;SDS011;65576;47.714;9.414;2023-07-24T03:47:00;11.55;;;4.90;;
76656;SDS011;65576;47.714;9.414;2023-07-24T03:49:25;8.88;;;4.88;;
76656;SDS011;65576;47.714;9.414;2023-07-24T03:51:50;8.07;;;4.63;;
76656;SDS011;65576;47.714;9.414;2023-07-24T03:54:15;9.30;;;4.40;;
76656;SDS011;65576;47.714;9.414;2023-07-24T03:56:41;10.52;;;5.07;;
76656;SDS011;65576;47.714;9.414;2023-07-24T03:59:06;9.20;;;4.90;;
76656;SDS011;65576;47.714;9.414;2023-07-24T04:01:31;11.85;;;4.90;;
76656;SDS011;65576;47.714;9.414;2023-07-24T04:03:57;8.25;;;4.47;;
76656;SDS011;65576;47.714;9.414;2023-07-24T04:06:23;6.40;;;3.92;;
76656;SDS011;65576;47.714;9.414;2023-07-24T04:08:49;10.50;;;5.00;;
76656;SDS011;65576;47.714;9.414;2023-07-24T04:11:14;7.38;;;4.47;;
76656;SDS011;65576;47.714;9.414;2023-07-24T04:13:39;11.77;;;4.97;;
76656;SDS011;65576;47.714;9.414;2023-07-24T04:16:05;8.95;;;4.90;;
76656;SDS011;65576;47.714;9.414;2023-07-24T04:18:30;8.23;;;4.93;;
76656;SDS011;65576;47.714;9.414;2023-07-24T04:20:56;10.85;;;4.82;;
76656;SDS011;65576;47.714;9.414;2023-07-24T04:23:21;9.25;;;4.53;;
76656;SDS011;65576;47.714;9.414;2023-07-24T04:25:46;8.82;;;4.68;;
76656;SDS011;65576;47.714;9.414;2023-07-24T04:28:14;7.88;;;4.30;;
76656;SDS011;65576;47.714;9.414;2023-07-24T04:30:39;12.18;;;5.03;;
76656;SDS011;65576;47.714;9.414;2023-07-24T04:33:05;8.48;;;4.22;;
76656;SDS011;65576;47.714;9.414;2023-07-24T04:35:30;7.90;;;4.38;;
76656;SDS011;65576;47.714;9.414;2023-07-24T04:37:55;11.20;;;4.72;;
76656;SDS011;65576;47.714;9.414;2023-07-24T04:40:22;8.02;;;5.30;;
76656;SDS011;65576;47.714;9.414;2023-07-24T04:42:47;10.90;;;5.00;;
76656;SDS011;65576;47.714;9.414;2023-07-24T04:45:13;9.27;;;4.70;;
76656;SDS011;65576;47.714;9.414;2023-07-24T04:47:38;9.98;;;4.88;;
76656;SDS011;65576;47.714;9.414;2023-07-24T04:50:04;11.30;;;5.00;;
76656;SDS011;65576;47.714;9.414;2023-07-24T04:52:29;7.20;;;4.35;;
76656;SDS011;65576;47.714;9.414;2023-07-24T04:54:55;8.45;;;5.28;;
76656;SDS011;65576;47.714;9.414;2023-07-24T04:57:20;9.13;;;4.30;;
76656;SDS011;65576;47.714;9.414;2023-07-24T04:59:45;9.20;;;4.38;;
76656;SDS011;65576;47.714;9.414;2023-07-24T05:02:11;10.50;;;4.53;;
76656;SDS011;65576;47.714;9.414;2023-07-24T05:04:36;8.30;;;4.85;;
76656;SDS011;65576;47.714;9.414;2023-07-24T05:07:02;7.10;;;4.68;;
76656;SDS011;65576;47.714;9.414;2023-07-24T05:09:27;9.23;;;4.82;;
76656;SDS011;65576;47.714;9.414;2023-07-24T05:11:52;7.13;;;3.90;;
76656;SDS011;65576;47.714;9.414;2023-07-24T05:14:18;11.85;;;4.65;;
76656;SDS011;65576;47.714;9.414;2023-07-24T05:16:43;8.05;;;4.53;;
76656;SDS011;65576;47.714;9.414;2023-07-24T05:19:08;11.18;;;5.22;;
76656;SDS011;65576;47.714;9.414;2023-07-24T05:21:34;10.77;;;5.03;;
76656;SDS011;65576;47.714;9.414;2023-07-24T05:23:59;13.93;;;5.65;;
76656;SDS011;65576;47.714;9.414;2023-07-24T05:26:24;9.10;;;3.85;;
76656;SDS011;65576;47.714;9.414;2023-07-24T05:28:50;9.05;;;3.85;;
76656;SDS011;65576;47.714;9.414;2023-07-24T05:31:15;8.10;;;4.05;;
76656;SDS011;65576;47.714;9.414;2023-07-24T05:33:40;7.43;;;4.38;;
76656;SDS011;65576;47.714;9.414;2023-07-24T05:36:05;8.93;;;4.40;;
76656;SDS011;65576;47.714;9.414;2023-07-24T05:38:31;8.50;;;4.10;;
76656;SDS011;65576;47.714;9.414;2023-07-24T05:41:00;13.98;;;4.75;;
76656;SDS011;65576;47.714;9.414;2023-07-24T05:43:27;9.23;;;3.92;;
76656;SDS011;65576;47.714;9.414;2023-07-24T05:45:53;6.47;;;3.65;;
76656;SDS011;65576;47.714;9.414;2023-07-24T05:48:19;8.75;;;4.30;;
76656;SDS011;65576;47.714;9.414;2023-07-24T05:50:45;6.32;;;3.35;;
76656;SDS011;65576;47.714;9.414;2023-07-24T05:53:10;6.93;;;3.20;;
76656;SDS011;65576;47.714;9.414;2023-07-24T05:55:35;6.18;;;3.17;;
76656;SDS011;65576;47.714;9.414;2023-07-24T05:58:01;7.93;;;3.60;;
76656;SDS011;65576;47.714;9.414;2023-07-24T06:00:26;4.57;;;2.65;;
76656;SDS011;65576;47.714;9.414;2023-07-24T06:02:52;7.45;;;3.03;;
76656;SDS011;65576;47.714;9.414;2023-07-24T06:05:18;5.22;;;2.50;;
76656;SDS011;65576;47.714;9.414;2023-07-24T06:07:44;4.45;;;2.28;;
76656;SDS011;65576;47.714;9.414;2023-07-24T06:10:10;3.53;;;1.92;;
76656;SDS011;65576;47.714;9.414;2023-07-24T06:12:35;3.35;;;1.92;;
76656;SDS011;65576;47.714;9.414;2023-07-24T06:15:00;4.78;;;2.30;;
76656;SDS011;65576;47.714;9.414;2023-07-24T06:17:26;6.40;;;2.72;;
76656;SDS011;65576;47.714;9.414;2023-07-24T06:19:51;6.28;;;2.70;;
76656;SDS011;65576;47.714;9.414;2023-07-24T06:22:16;4.22;;;2.17;;
76656;SDS011;65576;47.714;9.414;2023-07-24T06:24:42;4.40;;;2.45;;
76656;SDS011;65576;47.714;9.414;2023-07-24T06:27:07;4.15;;;2.35;;
76656;SDS011;65576;47.714;9.414;2023-07-24T06:29:32;5.45;;;2.90;;
76656;SDS011;65576;47.714;9.414;2023-07-24T06:31:58;4.13;;;2.50;;
76656;SDS011;65576;47.714;9.414;2023-07-24T06:34:23;7.10;;;3.03;;
76656;SDS011;65576;47.714;9.414;2023-07-24T06:36:48;3.53;;;2.55;;
76656;SDS011;65576;47.714;9.414;2023-07-24T06:39:14;3.72;;;2.55;;
76656;SDS011;65576;47.714;9.414;2023-07-24T06:41:39;3.80;;;2.17;;
76656;SDS011;65576;47.714;9.414;2023-07-24T06:44:04;4.80;;;2.67;;
76656;SDS011;65576;47.714;9.414;2023-07-24T06:46:30;4.55;;;2.95;;
76656;SDS011;65576;47.714;9.414;2023-07-24T06:48:55;5.88;;;2.55;;
76656;SDS011;65576;47.714;9.414;2023-07-24T06:51:20;4.90;;;2.60;;
76656;SDS011;65576;47.714;9.414;2023-07-24T06:53:45;7.28;;;2.60;;
76656;SDS011;65576;47.714;9.414;2023-07-24T06:56:11;4.97;;;3.08;;
76656;SDS011;65576;47.714;9.414;2023-07-24T06:58:36;6.35;;;2.80;;
76656;SDS011;65576;47.714;9.414;2023-07-24T07:01:05;6.20;;;2.95;;
76656;SDS011;65576;47.714;9.414;2023-07-24T07:03:31;11.32;;;3.08;;
76656;SDS011;65576;47.714;9.414;2023-07-24T07:06:00;4.78;;;3.22;;
76656;SDS011;65576;47.714;9.414;2023-07-24T07:08:25;5.63;;;2.45;;
76656;SDS011;65576;47.714;9.414;2023-07-24T07:10:57;4.47;;;2.53;;
76656;SDS011;65576;47.714;9.414;2023-07-24T07:13:23;6.28;;;3.60;;
76656;SDS011;65576;47.714;9.414;2023-07-24T07:15:48;4.22;;;2.30;;
76656;SDS011;65576;47.714;9.414;2023-07-24T07:18:13;6.78;;;2.10;;
76656;SDS011;65576;47.714;9.414;2023-07-24T07:20:44;7.85;;;2.90;;
76656;SDS011;65576;47.714;9.414;2023-07-24T07:23:10;4.78;;;2.20;;
76656;SDS011;65576;47.714;9.414;2023-07-24T07:25:35;5.57;;;2.92;;
76656;SDS011;65576;47.714;9.414;2023-07-24T07:28:00;4.00;;;2.20;;
76656;SDS011;65576;47.714;9.414;2023-07-24T07:30:26;5.75;;;3.00;;
76656;SDS011;65576;47.714;9.414;2023-07-24T07:32:51;4.55;;;1.98;;
76656;SDS011;65576;47.714;9.414;2023-07-24T07:35:16;9.30;;;2.75;;
76656;SDS011;65576;47.714;9.414;2023-07-24T07:37:42;6.18;;;2.97;;
76656;SDS011;65576;47.714;9.414;2023-07-24T07:40:07;8.50;;;3.25;;
76656;SDS011;65576;47.714;9.414;2023-07-24T07:42:33;4.20;;;2.33;;
76656;SDS011;65576;47.714;9.414;2023-07-24T07:44:58;5.10;;;2.88;;
76656;SDS011;65576;47.714;9.414;2023-07-24T07:47:23;4.30;;;2.45;;
76656;SDS011;65576;47.714;9.414;2023-07-24T07:49:49;4.68;;;2.80;;
76656;SDS011;65576;47.714;9.414;2023-07-24T07:52:14;5.80;;;2.53;;
76656;SDS011;65576;47.714;9.414;2023-07-24T07:54:45;4.28;;;2.80;;
76656;SDS011;65576;47.714;9.414;2023-07-24T07:57:11;4.63;;;2.78;;
76656;SDS011;65576;47.714;9.414;2023-07-24T07:59:36;5.70;;;2.47;;
76656;SDS011;65576;47.714;9.414;2023-07-24T08:02:01;3.08;;;2.33;;
76656;SDS011;65576;47.714;9.414;2023-07-24T08:04:26;4.13;;;2.30;;
76656;SDS011;65576;47.714;9.414;2023-07-24T08:06:52;5.05;;;2.65;;
76656;SDS011;65576;47.714;9.414;2023-07-24T08:09:17;3.90;;;2.60;;
76656;SDS011;65576;47.714;9.414;2023-07-24T08:11:42;4.05;;;2.55;;
76656;SDS011;65576;47.714;9.414;2023-07-24T08:14:08;5.60;;;2.35;;
76656;SDS011;65576;47.714;9.414;2023-07-24T08:16:33;9.25;;;2.78;;
76656;SDS011;65576;47.714;9.414;2023-07-24T08:18:58;4.47;;;2.33;;
76656;SDS011;65576;47.714;9.414;2023-07-24T08:21:24;6.57;;;3.15;;
76656;SDS011;65576;47.714;9.414;2023-07-24T08:23:49;5.03;;;2.55;;
76656;SDS011;65576;47.714;9.414;2023-07-24T08:26:14;5.30;;;2.92;;
76656;SDS011;65576;47.714;9.414;2023-07-24T08:28:39;7.30;;;2.92;;
76656;SDS011;65576;47.714;9.414;2023-07-24T08:31:07;8.60;;;2.88;;
76656;SDS011;65576;47.714;9.414;2023-07-24T08:33:32;4.53;;;2.42;;
76656;SDS011;65576;47.714;9.414;2023-07-24T08:35:58;4.72;;;2.58;;
76656;SDS011;65576;47.714;9.414;2023-07-24T08:38:31;9.35;;;3.78;;
76656;SDS011;65576;47.714;9.414;2023-07-24T08:41:00;6.65;;;3.30;;
76656;SDS011;65576;47.714;9.414;2023-07-24T08:43:30;5.75;;;2.90;;
76656;SDS011;65576;47.714;9.414;2023-07-24T08:45:56;5.07;;;2.75;;
76656;SDS011;65576;47.714;9.414;2023-07-24T08:48:22;4.07;;;2.97;;
76656;SDS011;65576;47.714;9.414;2023-07-24T08:50:49;7.03;;;3.22;;
76656;SDS011;65576;47.714;9.414;2023-07-24T08:53:15;5.30;;;2.88;;
76656;SDS011;65576;47.714;9.414;2023-07-24T08:55:41;4.35;;;2.47;;
76656;SDS011;65576;47.714;9.414;2023-07-24T08:58:07;4.65;;;2.78;;
76656;SDS011;65576;47.714;9.414;2023-07-24T09:00:34;5.20;;;2.92;;
76656;SDS011;65576;47.714;9.414;2023-07-24T09:02:59;6.25;;;2.50;;
76656;SDS011;65576;47.714;9.414;2023-07-24T09:05:25;6.13;;;2.70;;
76656;SDS011;65576;47.714;9.414;2023-07-24T09:07:51;6.40;;;3.00;;
76656;SDS011;65576;47.714;9.414;2023-07-24T09:10:19;4.40;;;2.60;;
76656;SDS011;65576;47.714;9.414;2023-07-24T09:12:49;4.18;;;2.28;;
76656;SDS011;65576;47.714;9.414;2023-07-24T09:15:14;4.50;;;2.60;;
76656;SDS011;65576;47.714;9.414;2023-07-24T09:17:47;3.53;;;2.17;;
76656;SDS011;65576;47.714;9.414;2023-07-24T09:20:13;5.18;;;2.40;;
76656;SDS011;65576;47.714;9.414;2023-07-24T09:22:47;4.30;;;2.45;;
76656;SDS011;65576;47.714;9.414;2023-07-24T09:25:15;4.32;;;2.75;;
76656;SDS011;65576;47.714;9.414;2023-07-24T09:27:41;5.78;;;2.90;;
76656;SDS011;65576;47.714;9.414;2023-07-24T09:30:15;4.65;;;2.47;;
76656;SDS011;65576;47.714;9.414;2023-07-24T09:32:40;6.95;;;2.13;;
76656;SDS011;65576;47.714;9.414;2023-07-24T09:35:16;5.25;;;2.58;;
76656;SDS011;65576;47.714;9.414;2023-07-24T09:37:42;4.72;;;2.38;;
76656;SDS011;65576;47.714;9.414;2023-07-24T09:40:08;4.65;;;2.28;;
76656;SDS011;65576;47.714;9.414;2023-07-24T09:42:35;5.35;;;2.45;;
76656;SDS011;65576;47.714;9.414;2023-07-24T09:45:01;3.95;;;2.25;;
76656;SDS011;65576;47.714;9.414;2023-07-24T09:47:27;8.32;;;2.80;;
76656;SDS011;65576;47.714;9.414;2023-07-24T09:49:53;6.38;;;2.50;;
76656;SDS011;65576;47.714;9.414;2023-07-24T09:52:19;5.53;;;2.67;;
76656;SDS011;65576;47.714;9.414;2023-07-24T09:57:33;4.28;;;2.58;;
76656;SDS011;65576;47.714;9.414;2023-07-24T09:59:58;3.83;;;2.17;;
76656;SDS011;65576;47.714;9.414;2023-07-24T10:02:24;5.22;;;2.65;;
76656;SDS011;65576;47.714;9.414;2023-07-24T10:04:50;4.05;;;2.13;;
76656;SDS011;65576;47.714;9.414;2023-07-24T10:07:15;3.55;;;2.38;;
76656;SDS011;65576;47.714;9.414;2023-07-24T10:09:42;6.30;;;2.80;;
76656;SDS011;65576;47.714;9.414;2023-07-24T10:12:08;5.18;;;2.50;;
76656;SDS011;65576;47.714;9.414;2023-07-24T10:14:34;5.85;;;2.20;;
76656;SDS011;65576;47.714;9.414;2023-07-24T10:17:00;4.05;;;2.90;;
76656;SDS011;65576;47.714;9.414;2023-07-24T10:19:34;6.38;;;3.03;;
76656;SDS011;65576;47.714;9.414;2023-07-24T10:22:01;4.85;;;2.75;;
76656;SDS011;65576;47.714;9.414;2023-07-24T10:24:29;5.15;;;2.88;;
76656;SDS011;65576;47.714;9.414;2023-07-24T10:26:55;6.32;;;2.67;;
76656;SDS011;65576;47.714;9.414;2023-07-24T10:29:23;4.72;;;2.88;;
76656;SDS011;65576;47.714;9.414;2023-07-24T10:31:53;5.63;;;2.72;;
76656;SDS011;65576;47.714;9.414;2023-07-24T10:34:19;5.77;;;2.57;;
76656;SDS011;65576;47.714;9.414;2023-07-24T10:36:45;4.53;;;2.60;;
76656;SDS011;65576;47.714;9.414;2023-07-24T10:39:14;4.60;;;2.83;;
76656;SDS011;65576;47.714;9.414;2023-07-24T10:41:40;4.32;;;2.50;;
76656;SDS011;65576;47.714;9.414;2023-07-24T10:44:05;3.70;;;2.47;;
76656;SDS011;65576;47.714;9.414;2023-07-24T10:46:37;5.20;;;2.67;;
76656;SDS011;65576;47.714;9.414;2023-07-24T10:49:07;8.55;;;3.08;;
76656;SDS011;65576;47.714;9.414;2023-07-24T10:51:33;4.90;;;2.67;;
76656;SDS011;65576;47.714;9.414;2023-07-24T10:53:59;6.65;;;3.20;;
76656;SDS011;65576;47.714;9.414;2023-07-24T10:56:26;6.25;;;3.13;;
76656;SDS011;65576;47.714;9.414;2023-07-24T10:58:52;6.55;;;3.30;;
76656;SDS011;65576;47.714;9.414;2023-07-24T11:01:17;4.38;;;3.08;;
76656;SDS011;65576;47.714;9.414;2023-07-24T11:03:43;6.13;;;3.33;;
76656;SDS011;65576;47.714;9.414;2023-07-24T11:06:12;5.43;;;2.70;;
76656;SDS011;65576;47.714;9.414;2023-07-24T11:11:05;8.93;;;2.92;;
76656;SDS011;65576;47.714;9.414;2023-07-24T11:13:31;4.13;;;2.80;;
76656;SDS011;65576;47.714;9.414;2023-07-24T11:15:57;7.13;;;3.50;;
76656;SDS011;65576;47.714;9.414;2023-07-24T11:18:29;3.63;;;2.60;;
76656;SDS011;65576;47.714;9.414;2023-07-24T11:20:55;5.35;;;2.90;;
76656;SDS011;65576;47.714;9.414;2023-07-24T11:23:21;6.65;;;2.72;;
76656;SDS011;65576;47.714;9.414;2023-07-24T11:25:47;6.57;;;2.88;;
76656;SDS011;65576;47.714;9.414;2023-07-24T11:28:14;3.45;;;2.20;;
76656;SDS011;65576;47.714;9.414;2023-07-24T11:30:40;3.17;;;1.77;;
76656;SDS011;65576;47.714;9.414;2023-07-24T11:33:06;3.03;;;1.85;;
76656;SDS011;65576;47.714;9.414;2023-07-24T11:35:33;3.20;;;1.60;;
76656;SDS011;65576;47.714;9.414;2023-07-24T11:38:00;2.97;;;1.40;;
76656;SDS011;65576;47.714;9.414;2023-07-24T11:40:39;2.70;;;1.35;;
76656;SDS011;65576;47.714;9.414;2023-07-24T11:43:14;4.55;;;1.58;;
76656;SDS011;65576;47.714;9.414;2023-07-24T11:45:43;2.20;;;1.20;;
76656;SDS011;65576;47.714;9.414;2023-07-24T11:48:10;1.77;;;1.23;;
76656;SDS011;65576;47.714;9.414;2023-07-24T11:50:43;2.33;;;1.23;;
76656;SDS011;65576;47.714;9.414;2023-07-24T11:53:18;1.85;;;1.10;;
76656;SDS011;65576;47.714;9.414;2023-07-24T11:55:48;2.42;;;1.30;;
76656;SDS011;65576;47.714;9.414;2023-07-24T11:58:15;1.38;;;1.00;;
76656;SDS011;65576;47.714;9.414;2023-07-24T12:00:41;2.85;;;1.52;;
76656;SDS011;65576;47.714;9.414;2023-07-24T12:03:06;3.65;;;1.55;;
76656;SDS011;65576;47.714;9.414;2023-07-24T12:05:42;2.08;;;1.30;;
76656;SDS011;65576;47.714;9.414;2023-07-24T12:08:08;3.22;;;1.77;;
76656;SDS011;65576;47.714;9.414;2023-07-24T12:10:36;1.77;;;1.20;;
76656;SDS011;65576;47.714;9.414;2023-07-24T12:13:02;4.82;;;1.50;;
76656;SDS011;65576;47.714;9.414;2023-07-24T12:15:28;9.82;;;1.48;;
76656;SDS011;65576;47.714;9.414;2023-07-24T12:17:53;1.67;;;1.10;;
76656;SDS011;65576;47.714;9.414;2023-07-24T12:20:18;2.88;;;1.40;;
76656;SDS011;65576;47.714;9.414;2023-07-24T12:22:44;3.20;;;1.30;;
76656;SDS011;65576;47.714;9.414;2023-07-24T12:25:09;2.88;;;1.30;;
76656;SDS011;65576;47.714;9.414;2023-07-24T12:27:34;2.30;;;1.58;;
76656;SDS011;65576;47.714;9.414;2023-07-24T12:30:00;1.85;;;1.23;;
76656;SDS011;65576;47.714;9.414;2023-07-24T12:32:25;2.22;;;1.08;;
76656;SDS011;65576;47.714;9.414;2023-07-24T12:34:51;1.48;;;1.10;;
76656;SDS011;65576;47.714;9.414;2023-07-24T12:37:17;3.78;;;1.33;;
76656;SDS011;65576;47.714;9.414;2023-07-24T12:39:44;1.58;;;1.00;;
76656;SDS011;65576;47.714;9.414;2023-07-24T12:42:10;1.58;;;1.30;;
76656;SDS011;65576;47.714;9.414;2023-07-24T12:44:36;1.88;;;1.20;;
76656;SDS011;65576;47.714;9.414;2023-07-24T12:47:01;1.58;;;1.33;;
76656;SDS011;65576;47.714;9.414;2023-07-24T12:49:26;3.38;;;1.50;;
76656;SDS011;65576;47.714;9.414;2023-07-24T12:51:51;3.15;;;1.50;;
76656;SDS011;65576;47.714;9.414;2023-07-24T12:54:17;2.78;;;1.33;;
76656;SDS011;65576;47.714;9.414;2023-07-24T12:56:44;3.13;;;1.40;;
76656;SDS011;65576;47.714;9.414;2023-07-24T12:59:10;1.60;;;1.13;;
76656;SDS011;65576;47.714;9.414;2023-07-24T13:01:35;2.75;;;1.20;;
76656;SDS011;65576;47.714;9.414;2023-07-24T13:04:00;2.45;;;1.45;;
76656;SDS011;65576;47.714;9.414;2023-07-24T13:06:25;2.13;;;1.33;;
76656;SDS011;65576;47.714;9.414;2023-07-24T13:08:51;2.38;;;1.20;;
76656;SDS011;65576;47.714;9.414;2023-07-24T13:11:16;1.98;;;1.02;;
76656;SDS011;65576;47.714;9.414;2023-07-24T13:13:42;1.27;;;0.93;;
76656;SDS011;65576;47.714;9.414;2023-07-24T13:16:07;2.85;;;1.33;;
76656;SDS011;65576;47.714;9.414;2023-07-24T13:18:32;1.70;;;1.38;;
76656;SDS011;65576;47.714;9.414;2023-07-24T13:20:58;4.38;;;1.45;;
76656;SDS011;65576;47.714;9.414;2023-07-24T13:23:23;2.65;;;1.10;;
76656;SDS011;65576;47.714;9.414;2023-07-24T13:25:49;6.10;;;1.92;;
76656;SDS011;65576;47.714;9.414;2023-07-24T13:28:15;2.05;;;1.50;;
76656;SDS011;65576;47.714;9.414;2023-07-24T13:30:41;4.03;;;1.30;;
76656;SDS011;65576;47.714;9.414;2023-07-24T13:33:06;2.60;;;1.60;;
76656;SDS011;65576;47.714;9.414;2023-07-24T13:35:32;1.25;;;0.95;;
76656;SDS011;65576;47.714;9.414;2023-07-24T13:37:57;2.63;;;1.42;;
76656;SDS011;65576;47.714;9.414;2023-07-24T13:40:22;1.75;;;1.20;;
76656;SDS011;65576;47.714;9.414;2023-07-24T13:42:48;1.48;;;1.13;;
76656;SDS011;65576;47.714;9.414;2023-07-24T13:45:13;4.57;;;1.33;;
76656;SDS011;65576;47.714;9.414;2023-07-24T13:47:38;2.13;;;1.23;;
76656;SDS011;65576;47.714;9.414;2023-07-24T13:50:04;2.45;;;1.45;;
76656;SDS011;65576;47.714;9.414;2023-07-24T13:52:30;1.55;;;1.00;;
76656;SDS011;65576;47.714;9.414;2023-07-24T13:54:55;3.00;;;1.20;;
76656;SDS011;65576;47.714;9.414;2023-07-24T13:57:20;2.92;;;1.52;;
76656;SDS011;65576;47.714;9.414;2023-07-24T13:59:46;2.08;;;1.30;;
76656;SDS011;65576;47.714;9.414;2023-07-24T14:02:12;1.38;;;1.08;;
76656;SDS011;65576;47.714;9.414;2023-07-24T14:04:37;1.50;;;1.10;;
76656;SDS011;65576;47.714;9.414;2023-07-24T14:07:03;1.98;;;1.30;;
76656;SDS011;65576;47.714;9.414;2023-07-24T14:09:28;3.28;;;1.67;;
76656;SDS011;65576;47.714;9.414;2023-07-24T14:11:55;1.92;;;1.05;;
76656;SDS011;65576;47.714;9.414;2023-07-24T14:14:21;1.52;;;1.05;;
76656;SDS011;65576;47.714;9.414;2023-07-24T14:16:48;1.75;;;1.02;;
76656;SDS011;65576;47.714;9.414;2023-07-24T14:19:13;1.92;;;1.20;;
76656;SDS011;65576;47.714;9.414;2023-07-24T14:21:39;1.38;;;1.10;;
76656;SDS011;65576;47.714;9.414;2023-07-24T14:24:05;1.80;;;1.10;;
76656;SDS011;65576;47.714;9.414;2023-07-24T14:26:30;2.38;;;1.40;;
76656;SDS011;65576;47.714;9.414;2023-07-24T14:28:55;2.30;;;1.45;;
76656;SDS011;65576;47.714;9.414;2023-07-24T14:31:21;2.28;;;1.33;;
76656;SDS011;65576;47.714;9.414;2023-07-24T14:33:46;2.35;;;1.60;;
76656;SDS011;65576;47.714;9.414;2023-07-24T14:36:11;1.35;;;1.00;;
76656;SDS011;65576;47.714;9.414;2023-07-24T14:38:37;1.70;;;1.10;;
76656;SDS011;65576;47.714;9.414;2023-07-24T14:41:02;3.13;;;1.25;;
76656;SDS011;65576;47.714;9.414;2023-07-24T14:43:27;2.20;;;1.20;;
76656;SDS011;65576;47.714;9.414;2023-07-24T14:45:53;2.88;;;1.52;;
76656;SDS011;65576;47.714;9.414;2023-07-24T14:48:18;2.22;;;1.10;;